Active alerts

Page
  Details for Page Red Flag Warning
Page
  Details for Page Wind Advisory
Page
  Details for Page Tornado Watch
Page
  Details for Page Fire Weather Watch
Santa Cruz
  Details for Santa Cruz 

Thunder radar more information blitzortung!


Rain radar more information rain snow radar


Visit our other weather sites:

Template documentation
and downloads

And another site



 Page  -  Red Flag Warning Red Flag Warning     Wind Advisory Wind Advisory     Tornado Watch Tornado Watch     Fire Weather Watch Fire Weather Watch  

Nearby METAR Reports

   
KAVP - Albrightsville, PA
Updated: May 29 2017 4:54 am
Light Rain, Overcast  
Light Rain, Overcast  
   Wind: varies 4.6 mph
Wind: varies 4.6 mph
Temperature: 55.4°F
Dew Point: 53.6°F
Humidity: 94%
Barometer: 29.82 inHg
Clouds: Overcast
Visibility: 7 mi
Cloud details: Partly Cloudy 975 m,
Mostly Cloudy 1250 m,
Overcast 1524 m
KAVP 290854Z VRB04KT 7SM -RA SCT032 BKN041 OVC050 13/12 A2982 RMK AO2 SLP092 P0015 60024 T01280117 56010
KIWA - Apache Junction, AZ
Updated: May 29 2017 5:15 am
Clear  
Clear  
   Wind: ESE 8.1 mph
Wind: ESE 8.1 mph
Temperature: 69.8°F
Dew Point: 26.6°F
Humidity: 20%
Barometer: 29.82 inHg
Clouds: Clear
Visibility: 10 mi
Cloud details: Clear
KIWA 290915Z AUTO 12007KT 10SM CLR 21/M03 A2982 RMK AO2
KPKB - Blue Rock, OH
Updated: May 29 2017 4:53 am
Clear  
Clear  
   Wind: WSW 5.8 mph
Wind: WSW 5.8 mph
Temperature: 64.4°F
Dew Point: 60.8°F
Humidity: 88%
Barometer: 29.86 inHg
Clouds: Clear
Visibility: 10 mi
Cloud details: Clear
KPKB 290853Z AUTO 24005KT 10SM CLR 18/16 A2986 RMK AO2 SLP105 60001 T01830161 50008
KHVN - Branford, CT
Updated: May 29 2017 4:53 am
Overcast  
Overcast  
   Wind: ENE 9.2 mph
Wind: ENE 9.2 mph
Temperature: 55.4°F
Dew Point: 51.8°F
Humidity: 88%
Barometer: 29.92 inHg
Clouds: Overcast
Visibility: 10 mi
Cloud details: Overcast 1981 m
KHVN 290853Z AUTO 07008KT 10SM OVC065 13/11 A2992 RMK AO2 SLP130 T01330106 56006
KPHX - Carefree, AZ
Updated: May 29 2017 4:51 am
Clear  
Clear  
   Wind: SW 4.6 mph
Wind: SW 4.6 mph
Temperature: 78.8°F
Dew Point: 28.4°F
Humidity: 16%
Barometer: 29.78 inHg
Clouds: Clear
Visibility: 10 mi
Cloud details: Clear
KPHX 290851Z 22004KT 10SM CLR 26/M02 A2978 RMK AO2 SLP065 T02611017 58003
 

Script developed by  Saratoga-weather.org Adapted for the template by  Weerstation Leuven

You find our weather info also at:

WeatherCloud

Weather Underground

Citizen Weather Observer Program (CWOP)

HAMweather, WeatherForYou, PWS Weather

Anything Weather